createdAt,value
2023-01-07T00:01:41.933Z,18.88
2023-01-07T00:04:11.964Z,22.10
2023-01-07T00:06:39.999Z,24.17
2023-01-07T00:09:08.256Z,33.42
2023-01-07T00:11:37.470Z,34.00
2023-01-07T00:14:05.697Z,29.77
2023-01-07T00:16:34.323Z,25.92
2023-01-07T00:19:02.461Z,24.02
2023-01-07T00:21:29.897Z,20.80
2023-01-07T00:24:01.619Z,21.98
2023-01-07T00:26:32.658Z,23.42
2023-01-07T00:29:00.136Z,15.75
2023-01-07T00:31:32.306Z,22.83
2023-01-07T00:33:59.375Z,19.70
2023-01-07T00:36:31.396Z,20.20
2023-01-07T00:39:30.354Z,17.27
2023-01-07T00:42:15.157Z,14.77
2023-01-07T00:44:41.749Z,14.25
2023-01-07T00:47:08.324Z,10.85
2023-01-07T00:49:34.953Z,9.05
2023-01-07T00:52:01.522Z,12.02
2023-01-07T00:54:28.231Z,10.23
2023-01-07T00:56:54.766Z,11.00
2023-01-07T00:59:21.357Z,10.43
2023-01-07T01:01:47.998Z,7.72
2023-01-07T01:04:15.165Z,6.93
2023-01-07T01:06:41.724Z,10.60
2023-01-07T01:09:08.903Z,11.43
2023-01-07T01:11:35.460Z,13.32
2023-01-07T01:14:02.059Z,12.77
2023-01-07T01:16:28.693Z,15.35
2023-01-07T01:18:55.273Z,12.65
2023-01-07T01:21:21.905Z,12.90
2023-01-07T01:23:48.494Z,14.20
2023-01-07T01:26:17.246Z,9.98
2023-01-07T01:28:44.951Z,11.27
2023-01-07T01:31:11.969Z,12.55
2023-01-07T01:33:38.780Z,11.40
2023-01-07T01:36:08.087Z,12.20
2023-01-07T01:38:34.651Z,10.98
2023-01-07T01:41:01.364Z,16.00
2023-01-07T01:43:35.113Z,9.38
2023-01-07T01:46:34.287Z,11.80
2023-01-07T01:49:08.085Z,14.45
2023-01-07T01:51:38.933Z,9.75
2023-01-07T01:54:08.923Z,10.93
2023-01-07T01:56:40.748Z,11.10
2023-01-07T01:59:12.137Z,11.60
2023-01-07T02:01:39.016Z,11.52
2023-01-07T02:04:10.562Z,11.50
2023-01-07T02:06:50.793Z,10.60
2023-01-07T02:09:17.321Z,10.45
2023-01-07T02:12:10.533Z,11.23
2023-01-07T02:15:03.818Z,14.43
2023-01-07T02:17:59.973Z,16.67
2023-01-07T02:20:44.893Z,16.33
2023-01-07T02:23:32.999Z,15.70
2023-01-07T02:26:37.320Z,13.27
2023-01-07T02:29:09.659Z,12.68
2023-01-07T02:32:02.385Z,8.23
2023-01-07T02:34:43.632Z,11.05
2023-01-07T02:37:43.771Z,10.25
2023-01-07T02:40:22.199Z,11.43
2023-01-07T02:42:57.893Z,11.85
2023-01-07T02:45:30.468Z,14.80
2023-01-07T02:48:01.513Z,13.23
2023-01-07T02:50:28.110Z,14.13
2023-01-07T02:52:54.697Z,20.30
2023-01-07T02:55:31.284Z,20.65
2023-01-07T02:58:19.311Z,19.35
2023-01-07T03:01:23.234Z,22.73
2023-01-07T03:04:04.783Z,16.70
2023-01-07T03:06:46.401Z,17.17
2023-01-07T03:09:25.053Z,19.10
2023-01-07T03:12:18.008Z,16.70
2023-01-07T03:14:48.177Z,20.13
2023-01-07T03:17:20.539Z,16.95
2023-01-07T03:19:57.746Z,14.45
2023-01-07T03:22:28.356Z,14.02
2023-01-07T03:24:58.087Z,13.63
2023-01-07T03:27:27.608Z,11.18
2023-01-07T03:29:56.073Z,11.68
2023-01-07T03:32:41.195Z,11.43
2023-01-07T03:35:08.709Z,10.77
2023-01-07T03:37:35.473Z,14.45
2023-01-07T03:40:06.597Z,14.30
2023-01-07T03:42:42.072Z,11.40
2023-01-07T03:45:17.682Z,11.10
2023-01-07T03:47:47.907Z,11.13
2023-01-07T03:50:15.739Z,20.92
2023-01-07T03:52:42.725Z,21.67
2023-01-07T03:55:10.745Z,15.80
2023-01-07T03:57:37.875Z,12.27
2023-01-07T04:00:06.606Z,10.20
2023-01-07T04:02:33.374Z,9.25
2023-01-07T04:04:59.954Z,10.82
2023-01-07T04:07:26.513Z,10.80
2023-01-07T04:09:53.034Z,6.97
2023-01-07T04:12:19.673Z,7.88
2023-01-07T04:14:46.239Z,15.73
2023-01-07T04:17:12.800Z,17.63
2023-01-07T04:19:39.927Z,17.30
2023-01-07T04:22:07.821Z,17.70
2023-01-07T04:24:34.417Z,19.98
2023-01-07T04:27:01.119Z,13.45
2023-01-07T04:29:27.720Z,21.15
2023-01-07T04:31:54.320Z,14.25
2023-01-07T04:34:20.872Z,20.63
2023-01-07T04:36:47.857Z,24.70
2023-01-07T04:39:14.732Z,15.98
2023-01-07T04:41:41.352Z,23.25
2023-01-07T04:44:08.055Z,18.52
2023-01-07T04:46:34.740Z,17.88
2023-01-07T04:49:01.482Z,20.33
2023-01-07T04:51:28.105Z,18.70
2023-01-07T04:53:56.556Z,11.48
2023-01-07T04:56:23.280Z,10.70
2023-01-07T04:58:49.860Z,8.65
2023-01-07T05:01:16.519Z,8.98
2023-01-07T05:03:43.159Z,9.50
2023-01-07T05:06:10.113Z,5.05
2023-01-07T05:08:36.669Z,9.40
2023-01-07T05:11:04.832Z,14.30
2023-01-07T05:13:32.044Z,16.48
2023-01-07T05:18:25.052Z,13.70
2023-01-07T05:20:51.619Z,18.98
2023-01-07T05:23:18.163Z,32.72
2023-01-07T05:25:44.681Z,53.72
2023-01-07T05:28:12.269Z,35.05
2023-01-07T05:30:39.550Z,48.25
2023-01-07T05:33:07.361Z,50.58
2023-01-07T05:35:34.935Z,35.47
2023-01-07T05:38:01.533Z,32.80
2023-01-07T05:40:28.174Z,32.65
2023-01-07T05:42:54.777Z,35.13
2023-01-07T05:45:21.887Z,22.27
2023-01-07T05:47:49.256Z,24.08
2023-01-07T05:50:15.989Z,28.67
2023-01-07T05:52:42.559Z,28.25
2023-01-07T05:55:09.501Z,25.80
2023-01-07T05:57:36.076Z,25.33
2023-01-07T06:00:03.170Z,25.30
2023-01-07T06:02:29.727Z,23.95
2023-01-07T06:04:56.299Z,32.13
2023-01-07T06:07:22.877Z,22.23
2023-01-07T06:09:49.435Z,25.85
2023-01-07T06:12:16.038Z,23.08
2023-01-07T06:14:42.637Z,15.90
2023-01-07T06:17:09.260Z,11.98
2023-01-07T06:19:35.796Z,19.85
2023-01-07T06:22:02.395Z,27.52
2023-01-07T06:24:28.983Z,24.45
2023-01-07T06:26:55.570Z,24.48
2023-01-07T06:29:22.138Z,47.00
2023-01-07T06:31:48.727Z,44.03
2023-01-07T06:34:15.419Z,49.92
2023-01-07T06:36:41.948Z,38.65
2023-01-07T06:39:08.534Z,45.92
2023-01-07T06:41:35.131Z,68.55
2023-01-07T06:44:01.706Z,66.22
2023-01-07T06:46:28.438Z,82.22
2023-01-07T06:48:55.486Z,57.67
2023-01-07T06:51:23.290Z,71.35
2023-01-07T06:53:49.883Z,61.28
2023-01-07T06:56:16.494Z,83.03
2023-01-07T06:58:43.066Z,62.35
2023-01-07T07:01:09.809Z,69.88
2023-01-07T07:03:36.473Z,72.93
2023-01-07T07:06:03.344Z,66.47
2023-01-07T07:08:29.963Z,48.90
2023-01-07T07:10:56.533Z,45.28
2023-01-07T07:13:23.096Z,63.45
2023-01-07T07:15:49.962Z,45.80
2023-01-07T07:18:18.253Z,49.67
2023-01-07T07:20:48.444Z,36.03
2023-01-07T07:23:15.139Z,41.97
2023-01-07T07:25:42.450Z,31.15
2023-01-07T07:28:09.053Z,31.38
2023-01-07T07:30:46.188Z,31.27
2023-01-07T07:33:15.119Z,25.55
2023-01-07T07:35:42.051Z,28.90
2023-01-07T07:38:08.648Z,31.17
2023-01-07T07:40:35.264Z,33.97
2023-01-07T07:43:11.051Z,24.17
2023-01-07T07:45:40.811Z,23.27
2023-01-07T07:48:08.566Z,28.13
2023-01-07T07:50:35.817Z,27.08
2023-01-07T07:55:28.969Z,27.95
2023-01-07T07:57:57.288Z,25.73
2023-01-07T08:00:24.294Z,25.90
2023-01-07T08:02:51.142Z,26.10
2023-01-07T08:05:17.941Z,20.38
2023-01-07T08:07:44.521Z,24.80
2023-01-07T08:10:11.141Z,24.45
2023-01-07T08:12:38.800Z,24.70
2023-01-07T08:15:07.097Z,23.83
2023-01-07T08:17:34.046Z,23.92
2023-01-07T08:20:00.643Z,25.40
2023-01-07T08:22:27.265Z,25.05
2023-01-07T08:24:53.827Z,21.33
2023-01-07T08:27:21.087Z,29.02
2023-01-07T08:32:14.195Z,25.45
2023-01-07T08:34:40.789Z,20.55
2023-01-07T08:37:07.389Z,22.70
2023-01-07T08:39:33.991Z,19.67
2023-01-07T08:42:00.608Z,19.08
2023-01-07T08:44:27.268Z,20.02
2023-01-07T08:46:54.546Z,16.23
2023-01-07T08:51:47.785Z,16.70
2023-01-07T08:54:14.522Z,18.95
2023-01-07T08:56:41.133Z,21.35
2023-01-07T08:59:07.735Z,19.42
2023-01-07T09:01:34.508Z,16.55
2023-01-07T09:04:01.066Z,17.25
2023-01-07T09:06:27.672Z,19.30
2023-01-07T09:08:54.255Z,14.75
2023-01-07T09:11:20.875Z,23.65
2023-01-07T09:13:47.544Z,21.58
2023-01-07T09:16:14.176Z,14.18
2023-01-07T09:18:40.807Z,14.90
2023-01-07T09:21:07.386Z,9.88
2023-01-07T09:23:34.045Z,15.50
2023-01-07T09:26:00.667Z,19.58
2023-01-07T09:28:27.270Z,15.40
2023-01-07T09:30:56.699Z,17.42
2023-01-07T09:33:23.779Z,15.23
2023-01-07T09:35:50.326Z,14.88
2023-01-07T09:38:16.869Z,18.33
2023-01-07T09:40:45.165Z,14.73
2023-01-07T09:43:17.898Z,13.98
2023-01-07T09:45:49.548Z,14.60
2023-01-07T09:48:30.203Z,13.95
2023-01-07T09:51:06.019Z,12.63
2023-01-07T09:53:50.252Z,13.07
2023-01-07T09:56:25.119Z,9.98
2023-01-07T09:58:51.957Z,14.70
2023-01-07T10:01:25.138Z,16.77
2023-01-07T10:04:16.108Z,23.60
2023-01-07T10:07:00.397Z,22.08
2023-01-07T10:09:57.896Z,33.88
2023-01-07T10:12:42.711Z,26.58
2023-01-07T10:15:27.228Z,19.85
2023-01-07T10:17:59.844Z,16.77
2023-01-07T10:20:52.668Z,15.77
2023-01-07T10:23:51.800Z,20.08
2023-01-07T10:26:38.631Z,12.70
2023-01-07T10:29:12.358Z,10.18
2023-01-07T10:31:39.796Z,14.63
2023-01-07T10:34:14.423Z,14.48
2023-01-07T10:37:00.838Z,10.70
2023-01-07T10:39:50.777Z,13.32
2023-01-07T10:42:29.863Z,13.95
2023-01-07T10:45:40.811Z,10.10
2023-01-07T10:48:22.784Z,11.90
2023-01-07T10:51:02.389Z,8.90
2023-01-07T10:53:31.861Z,9.27
2023-01-07T10:56:20.392Z,8.25
2023-01-07T10:58:49.318Z,11.45
2023-01-07T11:01:22.896Z,7.53
2023-01-07T11:03:55.235Z,20.38
2023-01-07T11:06:36.554Z,10.77
2023-01-07T11:09:07.887Z,16.08
2023-01-07T11:11:35.363Z,9.30
2023-01-07T11:14:12.933Z,12.57
2023-01-07T11:17:06.310Z,15.90
2023-01-07T11:19:45.883Z,8.35
2023-01-07T11:22:34.046Z,15.20
2023-01-07T11:25:02.476Z,8.63
2023-01-07T11:27:32.298Z,20.85
2023-01-07T11:30:37.937Z,9.40
2023-01-07T11:33:13.855Z,15.23
2023-01-07T11:35:51.513Z,11.23
2023-01-07T11:38:44.570Z,7.05
2023-01-07T11:41:26.188Z,6.80
2023-01-07T11:43:54.668Z,12.02
2023-01-07T11:46:25.866Z,17.23
2023-01-07T11:49:01.050Z,11.05
2023-01-07T11:51:39.796Z,12.10
2023-01-07T11:54:21.926Z,10.27
2023-01-07T11:56:48.636Z,7.65
2023-01-07T11:59:26.768Z,144.80
2023-01-07T12:01:57.053Z,20.25
2023-01-07T12:04:28.712Z,9.52
2023-01-07T12:07:01.921Z,57.15
2023-01-07T12:09:31.461Z,8.50
2023-01-07T12:12:34.533Z,8.00
2023-01-07T12:15:05.225Z,7.50
2023-01-07T12:17:35.239Z,7.53
2023-01-07T12:20:28.027Z,6.88
2023-01-07T12:22:58.434Z,7.30
2023-01-07T12:25:46.814Z,7.78
2023-01-07T12:28:19.747Z,9.48
2023-01-07T12:30:52.204Z,8.48
2023-01-07T12:33:38.996Z,8.65
2023-01-07T12:36:15.744Z,9.40
2023-01-07T12:38:49.580Z,9.02
2023-01-07T12:41:27.239Z,8.38
2023-01-07T12:44:09.543Z,7.60
2023-01-07T12:46:41.820Z,9.13
2023-01-07T12:49:34.703Z,8.80
2023-01-07T12:52:12.016Z,9.98
2023-01-07T12:54:54.566Z,12.18
2023-01-07T12:57:38.001Z,10.40
2023-01-07T13:00:42.112Z,10.43
2023-01-07T13:03:45.710Z,7.65
2023-01-07T13:06:22.113Z,16.70
2023-01-07T13:08:58.851Z,7.28
2023-01-07T13:11:52.984Z,9.45
2023-01-07T13:14:26.057Z,15.23
2023-01-07T13:16:56.094Z,14.23
2023-01-07T13:19:22.737Z,7.40
2023-01-07T13:21:50.219Z,6.97
2023-01-07T13:24:56.281Z,7.75
2023-01-07T13:30:27.713Z,4.93
2023-01-07T13:33:05.500Z,5.90
2023-01-07T13:35:42.601Z,7.85
2023-01-07T13:38:40.002Z,6.95
2023-01-07T13:41:59.275Z,10.23
2023-01-07T13:44:54.802Z,11.07
2023-01-07T13:47:25.591Z,9.73
2023-01-07T13:50:01.667Z,7.40
2023-01-07T13:52:31.711Z,6.70
2023-01-07T13:55:22.480Z,8.52
2023-01-07T13:57:49.097Z,8.48
2023-01-07T14:00:39.463Z,5.80
2023-01-07T14:03:53.515Z,7.32
2023-01-07T14:06:20.338Z,8.60
2023-01-07T14:08:50.675Z,15.77
2023-01-07T14:11:42.272Z,14.63
2023-01-07T14:14:26.935Z,18.60
2023-01-07T14:16:59.213Z,18.17
2023-01-07T14:19:53.832Z,15.02
2023-01-07T14:22:20.301Z,27.70
2023-01-07T14:24:55.866Z,46.07
2023-01-07T14:27:47.196Z,22.02
2023-01-07T14:30:51.156Z,19.45
2023-01-07T14:33:19.507Z,10.10
2023-01-07T14:35:56.433Z,13.88
2023-01-07T14:38:32.237Z,15.80
2023-01-07T14:41:05.867Z,6.53
2023-01-07T14:43:46.027Z,5.85
2023-01-07T14:46:24.829Z,5.65
2023-01-07T14:49:03.633Z,8.65
2023-01-07T14:52:01.846Z,6.40
2023-01-07T14:54:59.544Z,7.85
2023-01-07T14:57:44.233Z,7.07
2023-01-07T15:00:54.877Z,6.95
2023-01-07T15:03:24.697Z,5.80
2023-01-07T15:06:09.846Z,6.13
2023-01-07T15:09:12.726Z,9.88
2023-01-07T15:12:00.526Z,5.00
2023-01-07T15:14:49.056Z,8.55
2023-01-07T15:17:16.903Z,17.60
2023-01-07T15:19:44.382Z,21.63
2023-01-07T15:22:25.939Z,23.33
2023-01-07T15:25:09.380Z,26.15
2023-01-07T15:27:50.796Z,16.90
2023-01-07T15:30:32.585Z,10.10
2023-01-07T15:33:20.707Z,9.10
2023-01-07T15:35:47.521Z,11.35
2023-01-07T15:38:27.649Z,8.95
2023-01-07T15:40:56.533Z,11.35
2023-01-07T15:43:26.768Z,10.50
2023-01-07T15:46:08.056Z,10.27
2023-01-07T15:48:34.646Z,10.80
2023-01-07T15:51:01.303Z,7.65
2023-01-07T15:53:29.597Z,10.55
2023-01-07T15:56:02.045Z,8.40
2023-01-07T15:58:44.970Z,10.10
2023-01-07T16:01:17.362Z,9.90
2023-01-07T16:03:44.777Z,9.35
2023-01-07T16:08:53.240Z,6.13
2023-01-07T16:11:25.873Z,8.27
2023-01-07T16:13:57.506Z,8.93
2023-01-07T16:16:25.034Z,9.35
2023-01-07T16:18:59.717Z,10.30
2023-01-07T16:21:35.239Z,15.98
2023-01-07T16:24:01.928Z,9.95
2023-01-07T16:26:37.615Z,12.93
2023-01-07T16:29:16.783Z,8.40
2023-01-07T16:31:44.054Z,11.43
2023-01-07T16:37:02.627Z,8.50
2023-01-07T16:39:39.299Z,8.88
2023-01-07T16:42:23.007Z,10.88
2023-01-07T16:44:52.645Z,10.00
2023-01-07T16:47:24.845Z,12.27
2023-01-07T16:49:57.120Z,9.00
2023-01-07T16:52:31.590Z,8.25
2023-01-07T16:54:58.259Z,10.70
2023-01-07T16:57:30.644Z,10.60
2023-01-07T16:59:58.995Z,17.90
2023-01-07T17:02:32.721Z,13.85
2023-01-07T17:05:22.846Z,81.85
2023-01-07T17:07:54.887Z,65.00
2023-01-07T17:10:27.416Z,129.77
2023-01-07T17:13:15.759Z,27.17
2023-01-07T17:15:43.689Z,12.13
2023-01-07T17:18:13.093Z,8.50
2023-01-07T17:20:51.837Z,8.20
2023-01-07T17:23:27.620Z,10.02
2023-01-07T17:26:03.468Z,9.00
2023-01-07T17:28:32.983Z,11.25
2023-01-07T17:31:00.845Z,10.20
2023-01-07T17:33:27.715Z,7.80
2023-01-07T17:35:54.422Z,12.35
2023-01-07T17:38:21.127Z,10.57
2023-01-07T17:40:48.195Z,10.55
2023-01-07T17:43:35.387Z,12.20
2023-01-07T17:46:06.181Z,9.48
2023-01-07T17:48:33.398Z,9.48
2023-01-07T17:51:01.365Z,9.63
2023-01-07T17:53:34.057Z,9.77
2023-01-07T17:56:01.848Z,10.77
2023-01-07T17:58:33.691Z,10.05
2023-01-07T18:01:02.684Z,8.88
2023-01-07T18:03:29.445Z,7.72
2023-01-07T18:05:56.048Z,9.13
2023-01-07T18:08:22.604Z,8.45
2023-01-07T18:11:10.261Z,10.70
2023-01-07T18:13:36.885Z,10.40
2023-01-07T18:16:03.692Z,9.93
2023-01-07T18:18:30.307Z,13.05
2023-01-07T18:20:58.158Z,10.98
2023-01-07T18:23:25.052Z,10.70
2023-01-07T18:25:51.632Z,11.35
2023-01-07T18:28:18.159Z,6.03
2023-01-07T18:30:44.720Z,9.43
2023-01-07T18:33:11.860Z,6.82
2023-01-07T18:35:41.720Z,9.73
2023-01-07T18:38:13.323Z,14.50
2023-01-07T18:40:40.166Z,14.18
2023-01-07T18:43:07.367Z,12.25
2023-01-07T18:48:00.408Z,6.70
2023-01-07T18:50:27.099Z,9.02
2023-01-07T18:52:53.678Z,7.03
2023-01-07T18:55:21.029Z,9.05
2023-01-07T18:57:47.671Z,10.82
2023-01-07T19:00:15.735Z,6.95
2023-01-07T19:02:42.330Z,9.40
2023-01-07T19:05:09.015Z,7.82
2023-01-07T19:07:36.215Z,8.93
2023-01-07T19:10:04.788Z,12.77
2023-01-07T19:12:31.387Z,9.23
2023-01-07T19:14:57.956Z,10.27
2023-01-07T19:17:24.599Z,8.15
2023-01-07T19:19:51.871Z,9.05
2023-01-07T19:24:45.132Z,13.88
2023-01-07T19:27:12.064Z,14.10
2023-01-07T19:29:38.670Z,12.73
2023-01-07T19:32:05.636Z,11.68
2023-01-07T19:34:32.247Z,8.90
2023-01-07T19:36:58.748Z,6.50
2023-01-07T19:39:25.334Z,11.50
2023-01-07T19:41:52.030Z,12.55
2023-01-07T19:44:18.701Z,10.23
2023-01-07T19:46:45.228Z,11.85
2023-01-07T19:49:13.457Z,8.32
2023-01-07T19:51:41.979Z,8.57
2023-01-07T19:54:11.824Z,13.98
2023-01-07T19:56:40.195Z,10.18
2023-01-07T19:59:07.060Z,12.85
2023-01-07T20:01:33.877Z,11.43
2023-01-07T20:04:01.001Z,13.40
2023-01-07T20:06:29.953Z,11.07
2023-01-07T20:08:58.535Z,14.48
2023-01-07T20:11:25.397Z,17.40
2023-01-07T20:13:52.055Z,8.07
2023-01-07T20:16:23.449Z,9.52
2023-01-07T20:18:52.608Z,12.60
2023-01-07T20:21:21.897Z,9.68
2023-01-07T20:23:49.062Z,9.23
2023-01-07T20:26:18.638Z,11.02
2023-01-07T20:28:45.663Z,13.68
2023-01-07T20:31:14.644Z,9.60
2023-01-07T20:33:42.402Z,11.98
2023-01-07T20:36:11.915Z,8.60
2023-01-07T20:38:39.505Z,9.32
2023-01-07T20:41:08.360Z,8.40
2023-01-07T20:43:36.115Z,9.07
2023-01-07T20:46:04.671Z,13.02
2023-01-07T20:48:31.874Z,9.38
2023-01-07T20:53:28.487Z,9.10
2023-01-07T20:55:59.541Z,9.50
2023-01-07T20:58:29.727Z,7.30
2023-01-07T21:00:56.468Z,11.55
2023-01-07T21:03:23.176Z,7.38
2023-01-07T21:05:49.843Z,8.50
2023-01-07T21:08:16.429Z,11.05
2023-01-07T21:10:43.784Z,8.52
2023-01-07T21:13:10.356Z,8.50
2023-01-07T21:15:38.532Z,9.45
2023-01-07T21:18:05.128Z,8.40
2023-01-07T21:20:31.883Z,8.57
2023-01-07T21:22:58.519Z,8.70
2023-01-07T21:25:25.068Z,8.93
2023-01-07T21:27:51.740Z,9.23
2023-01-07T21:30:19.401Z,8.88
2023-01-07T21:32:47.291Z,11.93
2023-01-07T21:35:14.763Z,7.70
2023-01-07T21:37:41.387Z,10.65
2023-01-07T21:40:08.501Z,7.80
2023-01-07T21:42:36.466Z,14.60
2023-01-07T21:45:03.351Z,7.90
2023-01-07T21:47:30.117Z,9.35
2023-01-07T21:49:56.928Z,8.82
2023-01-07T21:52:23.611Z,10.32
2023-01-07T21:54:51.926Z,9.38
2023-01-07T21:57:19.620Z,8.68
2023-01-07T21:59:46.371Z,9.23
2023-01-07T22:02:13.795Z,7.82
2023-01-07T22:04:40.895Z,10.65
2023-01-07T22:07:14.081Z,9.98
2023-01-07T22:09:40.848Z,8.63
2023-01-07T22:12:08.710Z,8.30
2023-01-07T22:14:35.268Z,7.55
2023-01-07T22:17:01.969Z,5.82
2023-01-07T22:19:28.703Z,10.88
2023-01-07T22:21:55.424Z,9.45
2023-01-07T22:24:22.117Z,14.48
2023-01-07T22:26:48.804Z,13.57
2023-01-07T22:29:16.413Z,8.45
2023-01-07T22:31:43.130Z,10.35
2023-01-07T22:34:10.332Z,8.65
2023-01-07T22:39:18.119Z,8.50
2023-01-07T22:41:45.949Z,12.65
2023-01-07T22:44:22.075Z,9.80
2023-01-07T22:46:50.965Z,8.70
2023-01-07T22:49:18.899Z,9.10
2023-01-07T22:51:48.389Z,12.25
2023-01-07T22:54:16.283Z,8.20
2023-01-07T22:56:44.208Z,9.65
2023-01-07T22:59:10.812Z,9.27
2023-01-07T23:01:38.249Z,9.57
2023-01-07T23:04:05.272Z,9.68
2023-01-07T23:06:31.926Z,9.45
2023-01-07T23:08:58.610Z,5.95
2023-01-07T23:11:43.808Z,10.57
2023-01-07T23:14:10.486Z,10.55
2023-01-07T23:16:37.644Z,15.35
2023-01-07T23:24:01.029Z,9.05
2023-01-07T23:26:27.588Z,9.35
2023-01-07T23:28:54.476Z,7.40
2023-01-07T23:31:21.175Z,10.15
2023-01-07T23:33:47.807Z,8.52
2023-01-07T23:36:14.436Z,10.23
2023-01-07T23:38:41.032Z,8.82
2023-01-07T23:41:09.517Z,10.15
2023-01-07T23:43:36.555Z,11.75
2023-01-07T23:46:05.931Z,8.45
2023-01-07T23:48:34.919Z,8.80
2023-01-07T23:51:13.813Z,8.73
2023-01-07T23:53:40.714Z,7.93
2023-01-07T23:56:08.197Z,11.85
2023-01-07T23:58:35.663Z,10.80
